Search for airport 
image banner adimage banner adimage banner ad
image banner ad

CA76 - Flying T Ranch

Located in Ramona, United States

ICAO - CA76, IATA -

Data provided by Airmate  

General information

Coordinates: N33°4'13" W116°45'7"
Elevation is 2500 feet MSL.
Magnetic variation is 13° East
View others Airports in California

Operational data

Special qualification required
Current time UTC:
Current local time:
Weather at : KRNM - Ramona ( 16 km )
METAR: KRNM 270512Z AUTO 00000KT 2SM BR OVC003 18/18 A2999 RMK AO2 T01830183
View NOTAMs / SUP AIP / TFR affecting this airport [VIEW]
Communications frequencies: [VIEW]

Runways:

RWY identifierQFULength (ft)Width (ft)SurfaceLDA (ft)
03200075OTHER
21200075OTHER

Airport contact information

Address: Ramona United States

Satellite view of CA76